Flight Track Log - Related Links

Times and Time Zones

All times are in EDT time to prevent confusion due to time zone crossing. See the KAP46 flight status page for this flight to view local times or setup timezone preferences in your user account.

Time Position Orientation Groundspeed Altitude Reporting Facility
EDT Latitude Longitude Course Direction KTS MPH feet Rate Location/Type
Sun 10:38:18 AM 42.7172 -73.8136 185° South 115 132 1,500  Level Boston Center
Sun 10:39:19 AM 42.7147 -73.8586 266° West 125 144 2,300 756 Climbing Boston Center
Sun 10:40:25 AM 42.7369 -73.8958 309° West 139 160 3,100 756 Climbing Boston Center
Sun 10:41:26 AM 42.7722 -73.9081 346° North 132 152 3,900 689 Climbing Boston Center
Sun 10:42:27 AM 42.7969 -73.9397 317° Northwest 127 146 4,500 639 Climbing Boston Center
Sun 10:43:28 AM 42.8192 -73.9828 305° West 128 147 5,200 626 Climbing Boston Center
Sun 10:44:22 AM 42.8397 -74.0172 309° West 131 151 5,700 645 Climbing Boston Center
Sun 10:45:29 AM 42.8811 -74.0381 340° North 149 171 6,500 656 Climbing Boston Center
Sun 10:46:30 AM 42.9225 -74.0506 348° North 145 167 7,100 645 Climbing Boston Center
Sun 10:47:30 AM 42.9597 -74.0658 343° North 147 169 7,800 496 Climbing Boston Center
Sun 10:48:31 AM 42.9992 -74.0808 344° North 147 169 8,100 94 Climbing Boston Center
Sun 10:49:38 AM 43.0511 -74.0994 345° North 169 194 8,000 -56 Descending Boston Center
Sun 10:50:18 AM 43.0758 -74.1114 341° North 167 192 8,000  Level Boston Center
Sun 10:51:18 AM 43.1256 -74.1297 345° North 194 223 8,000  Level Boston Center
Sun 10:52:30 AM 43.1775 -74.1483 345° North 181 208 8,000  Level Boston Center
Sun 10:53:30 AM 43.2272 -74.1697 343° North 176 203 8,000  Level Boston Center
Sun 10:54:30 AM 43.2708 -74.1822 348° North 176 203 8,000  Level Boston Center
Sun 10:55:30 AM 43.3206 -74.2039 342° North 171 197 8,000  Level Boston Center
Sun 10:56:30 AM 43.3619 -74.2192 345° North 171 197 8,000  Level Boston Center
Sun 10:57:30 AM 43.4136 -74.2381 345° North 165 190 8,000  Level Boston Center
Sun 10:58:30 AM 43.4592 -74.2564 344° North 165 190 8,000  Level Boston Center
Sun 10:59:30 AM 43.5069 -74.2750 344° North 165 190 8,000  Level Boston Center
Sun 11:00:30 AM 43.5525 -74.2908 346° North 165 190 8,000  Level Boston Center
Sun 11:01:30 AM 43.5981 -74.3122 341° North 165 190 8,000  Level Boston Center
Sun 11:02:30 AM 43.6436 -74.3281 346° North 165 190 8,000  Level Boston Center
Sun 11:03:30 AM 43.6892 -74.3467 344° North 165 190 8,000 -50 Level Boston Center
Sun 11:04:30 AM 43.7325 -74.3622 345° North 165 190 7,900 -50 Descending Boston Center
Sun 11:05:30 AM 43.7781 -74.3811 343° North 165 190 7,900  Level Boston Center
Sun 11:06:42 AM 43.8342 -74.4031 344° North 165 190 7,900  Level Boston Center
Sun 11:07:42 AM 43.8775 -74.4189 345° North 165 190 7,900  Level Boston Center
Sun 11:08:42 AM 43.9231 -74.4378 343° North 165 190 7,900  Level Boston Center
Sun 11:09:42 AM 43.9686 -74.4564 344° North 165 190 7,900  Level Boston Center
Sun 11:10:42 AM 44.0142 -74.4753 343° North 165 190 7,900  Level Boston Center
Sun 11:11:42 AM 44.0594 -74.5000 339° North 165 190 7,900  Level Boston Center
Sun 11:12:42 AM 44.1008 -74.5217 339° North 165 190 7,900  Level Boston Center
Sun 11:13:42 AM 44.1483 -74.5494 337° Northwest 165 190 7,900  Level Boston Center
Sun 11:14:54 AM 44.1894 -74.5739 337° Northwest 170 196 7,900  Level Boston Center
Sun 11:15:54 AM 44.2411 -74.6019 339° North 170 196 7,900  Level Boston Center
Sun 11:16:54 AM 44.2864 -74.6267 339° North 170 196 7,900  Level Boston Center
Sun 11:17:54 AM 44.3297 -74.6517 338° Northwest 170 196 7,900  Level Boston Center
Sun 11:18:54 AM 44.3731 -74.6764 338° Northwest 170 196 7,900 -136 Level Boston Center
Sun 11:20:06 AM 44.4183 -74.7042 336° Northwest 170 196 7,600 -409 Descending Boston Center
Sun 11:21:06 AM 44.4761 -74.7356 339° North 175 201 7,000 -500 Descending Boston Center
Sun 11:22:06 AM 44.5214 -74.7636 336° Northwest 187 215 6,600 -450 Descending Boston Center
Sun 11:23:06 AM 44.5667 -74.7886 339° North 187 215 6,100 -450 Descending Boston Center
Sun 11:24:06 AM 44.6139 -74.8167 337° Northwest 187 215 5,700 -500 Descending Boston Center
Sun 11:25:06 AM 44.6592 -74.8419 338° Northwest 181 208 5,100 -500 Descending Boston Center
Sun 11:26:06 AM 44.7106 -74.8764 335° Northwest 181 208 4,700 -950 Descending Boston Center
Sun 11:27:06 AM 44.7578 -74.9075 335° Northwest 181 208 3,200 -750 Descending Boston Center
Sun 11:28:06 AM 44.7950 -74.9325 335° Northwest 181 208 3,200  Level Boston Center
Sun 11:29:06 AM 44.8503 -74.9700 334° Northwest 181 208 3,200  Level Boston Center
Sun 11:30:06 AM 44.8769 -74.9886 334° Northwest 181 208 3,200  Level Boston Center
Sun 11:31:06 AM 44.8769 -74.9886 350° North 181 208 3,200  Level Boston Center
Sun 11:32:06 AM 44.8769 -74.9886 350° North 181 208 3,200  Level Boston Center
Sun 11:33:06 AM 44.8769 -74.9886 350° North 181 208 3,200  Level Boston Center
Sun 11:35:06 AM 44.8769 -74.9886 350° North 181 208 3,200  Level Boston Center

Login

Don't have an account? Register now (free) for customized features, flight alerts, and more!